Thunder radar more information blitzortung!


Radar de pluja more information rain snow radar


Visita la nostra xarxa de llocs de meteo:

Template documentation
and downloads

And another site



No particular awareness of the weather is required.    There are no Weather-warnings

Pagina Historial Weather Underground text

Diari Resum Juny 19, 2017 Unitats:  Tant    Imperial   Mètric
« Previous Dia
SegĂźent Dia »
Diari Setmana Mensual Anual Personalitzada
  Maxima: Minima: Media:
Temperatura: TemperatureC °F /  -17.8 °C 19.5 °F /  -6.9 °C 27 °F /  -2.8 °C
Punt de rosada: DewpointC °F /  -17.8 °C 13.2 °F /  -10.4 °C 16.4 °F /  -8.7 °C
Humitat: Humidity % 35 % 53 %
Wind Speed: WindSpeedKMH mph /  0 km/h - 8.2 mph /  13.2 km/h
RĂ fegues de vent: WindSpeedGustKMH mph /  0 km/h - -
Vent:- - SSE
Pression baro: PressurehPa in /  0 hPa 1014.8 in /  34361.1 hPa -
Precipitacions: 0.0 in /  0 mm    
Historical Graphs
 
 
Dades de taula per Juny 19, 2017
Temps Temperatura Punt de rosada Pression baro Vent Wind Speed RĂ fegues de vent Humitat Rainfall Rate (Hourly)
TemperatureC °F /  -17.8 °C DewpointC °F /  -17.8 °C PressurehPa in /  0 hPa Calm     Humidity % HourlyPrecipMM in /  0 mm
00:00 20.2 °F /  -6.6 °C 16.2 °F /  -8.8 °C 1015.8 in /  34395 hPa Calm   3.2 mph /  5.1 km/h 78 % 0.0 in /  0 mm
00:01 23.4 °F /  -4.8 °C 17.4 °F /  -8.1 °C 1015.8 in /  34395 hPa NNE 3.7 mph /  6 km/h 3.7 mph /  6 km/h 69 % 0.0 in /  0 mm
00:10 20.1 °F /  -6.6 °C 16.2 °F /  -8.8 °C 1015.8 in /  34395 hPa NNE 1.6 mph /  2.6 km/h 1.6 mph /  2.6 km/h 78 % 0.0 in /  0 mm
00:20 20.0 °F /  -6.7 °C 16.1 °F /  -8.8 °C 1015.8 in /  34395 hPa Calm   3.2 mph /  5.1 km/h 78 % 0.0 in /  0 mm
00:30 19.9 °F /  -6.7 °C 15.7 °F /  -9.1 °C 1015.8 in /  34395 hPa NNE 1.6 mph /  2.6 km/h 3.2 mph /  5.1 km/h 77 % 0.0 in /  0 mm
00:40 19.8 °F /  -6.8 °C 15.8 °F /  -9 °C 1015.8 in /  34395 hPa Calm   3.2 mph /  5.1 km/h 78 % 0.0 in /  0 mm
00:50 19.7 °F /  -6.8 °C 15.8 °F /  -9 °C 1015.8 in /  34395 hPa NNE 1.6 mph /  2.6 km/h 3.2 mph /  5.1 km/h 78 % 0.0 in /  0 mm
01:00 19.7 °F /  -6.8 °C 15.8 °F /  -9 °C 1015.8 in /  34395 hPa NE 1.6 mph /  2.6 km/h 1.6 mph /  2.6 km/h 78 % 0.0 in /  0 mm
01:10 19.7 °F /  -6.8 °C 15.8 °F /  -9 °C 1015.8 in /  34395 hPa Calm   1.6 mph /  2.6 km/h 78 % 0.0 in /  0 mm
01:20 19.7 °F /  -6.8 °C 15.8 °F /  -9 °C 1015.8 in /  34395 hPa Calm   1.6 mph /  2.6 km/h 78 % 0.0 in /  0 mm
01:30 19.6 °F /  -6.9 °C 15.7 °F /  -9.1 °C 1015.8 in /  34395 hPa Calm   3.2 mph /  5.1 km/h 78 % 0.0 in /  0 mm
01:40 19.5 °F /  -6.9 °C 15.6 °F /  -9.1 °C 1015.8 in /  34395 hPa NNE 1.6 mph /  2.6 km/h 1.6 mph /  2.6 km/h 78 % 0.0 in /  0 mm
01:50 19.6 °F /  -6.9 °C 15.7 °F /  -9.1 °C 1015.8 in /  34395 hPa Calm     78 % 0.0 in /  0 mm
02:00 19.7 °F /  -6.8 °C 15.8 °F /  -9 °C 1015.8 in /  34395 hPa Calm   3.2 mph /  5.1 km/h 78 % 0.0 in /  0 mm
02:10 19.6 °F /  -6.9 °C 15.7 °F /  -9.1 °C 1015.8 in /  34395 hPa Calm   1.6 mph /  2.6 km/h 78 % 0.0 in /  0 mm
02:20 19.8 °F /  -6.8 °C 15.8 °F /  -9 °C 1016.8 in /  34428.8 hPa SW 1.6 mph /  2.6 km/h 3.2 mph /  5.1 km/h 78 % 0.0 in /  0 mm
02:30 19.9 °F /  -6.7 °C 15.9 °F /  -8.9 °C 1016.8 in /  34428.8 hPa Calm   3.2 mph /  5.1 km/h 78 % 0.0 in /  0 mm
02:40 20.6 °F /  -6.3 °C 16.6 °F /  -8.6 °C 1016.8 in /  34428.8 hPa SSW 1.6 mph /  2.6 km/h 3.2 mph /  5.1 km/h 78 % 0.0 in /  0 mm
02:50 20.7 °F /  -6.3 °C 16.5 °F /  -8.6 °C 1017.8 in /  34462.7 hPa Calm   3.2 mph /  5.1 km/h 77 % 0.0 in /  0 mm
03:00 21.1 °F /  -6.1 °C 16.7 °F /  -8.5 °C 1017.8 in /  34462.7 hPa Calm   1.6 mph /  2.6 km/h 76 % 0.0 in /  0 mm
03:10 21.7 °F /  -5.7 °C 17.1 °F /  -8.3 °C 1017.8 in /  34462.7 hPa East 1.6 mph /  2.6 km/h 3.2 mph /  5.1 km/h 75 % 0.0 in /  0 mm
03:20 22.0 °F /  -5.6 °C 16.9 °F /  -8.4 °C 1017.8 in /  34462.7 hPa ENE 1.6 mph /  2.6 km/h 4.8 mph /  7.7 km/h 73 % 0.0 in /  0 mm
03:30 22.1 °F /  -5.5 °C 16.6 °F /  -8.6 °C 1017.8 in /  34462.7 hPa ENE 3.2 mph /  5.1 km/h 4.8 mph /  7.7 km/h 71 % 0.0 in /  0 mm
03:40 22.6 °F /  -5.2 °C 16.8 °F /  -8.4 °C 1017.8 in /  34462.7 hPa ENE 3.2 mph /  5.1 km/h 4.8 mph /  7.7 km/h 70 % 0.0 in /  0 mm
03:50 22.9 °F /  -5.1 °C 16.9 °F /  -8.4 °C 1017.8 in /  34462.7 hPa East 1.6 mph /  2.6 km/h 4.8 mph /  7.7 km/h 69 % 0.0 in /  0 mm
04:00 23.4 °F /  -4.8 °C 16.9 °F /  -8.4 °C 1017.8 in /  34462.7 hPa ENE 4.8 mph /  7.7 km/h 4.8 mph /  7.7 km/h 67 % 0.0 in /  0 mm
04:10 23.4 °F /  -4.8 °C 16.4 °F /  -8.7 °C 1017.8 in /  34462.7 hPa East 4.8 mph /  7.7 km/h 4.8 mph /  7.7 km/h 65 % 0.0 in /  0 mm
04:20 23.8 °F /  -4.6 °C 16.6 °F /  -8.6 °C 1018.8 in /  34496.6 hPa East 3.2 mph /  5.1 km/h 6.4 mph /  10.3 km/h 64 % 0.0 in /  0 mm
04:30 24.3 °F /  -4.3 °C 16.6 °F /  -8.6 °C 1018.8 in /  34496.6 hPa ENE 4.8 mph /  7.7 km/h 6.4 mph /  10.3 km/h 62 % 0.0 in /  0 mm
04:40 24.5 °F /  -4.2 °C 16.2 °F /  -8.8 °C 1017.8 in /  34462.7 hPa ENE 3.2 mph /  5.1 km/h 9.7 mph /  15.6 km/h 60 % 0.0 in /  0 mm
04:50 24.6 °F /  -4.1 °C 15.8 °F /  -9 °C 1017.8 in /  34462.7 hPa East 8.0 mph /  12.9 km/h 8.0 mph /  12.9 km/h 58 % 0.0 in /  0 mm
05:00 25.0 °F /  -3.9 °C 15.9 °F /  -8.9 °C 1017.8 in /  34462.7 hPa East 4.8 mph /  7.7 km/h 6.4 mph /  10.3 km/h 57 % 0.0 in /  0 mm
05:10 25.3 °F /  -3.7 °C 15.6 °F /  -9.1 °C 1017.8 in /  34462.7 hPa ENE 1.6 mph /  2.6 km/h 8.0 mph /  12.9 km/h 55 % 0.0 in /  0 mm
05:20 25.9 °F /  -3.4 °C 16.2 °F /  -8.8 °C 1017.8 in /  34462.7 hPa ENE 3.2 mph /  5.1 km/h 8.0 mph /  12.9 km/h 55 % 0.0 in /  0 mm
05:30 26.7 °F /  -2.9 °C 16.9 °F /  -8.4 °C 1017.8 in /  34462.7 hPa East 4.8 mph /  7.7 km/h 6.4 mph /  10.3 km/h 55 % 0.0 in /  0 mm
05:40 26.3 °F /  -3.2 °C 16.2 °F /  -8.8 °C 1016.8 in /  34428.8 hPa ESE 4.8 mph /  7.7 km/h 9.7 mph /  15.6 km/h 54 % 0.0 in /  0 mm
05:50 26.6 °F /  -3 °C 16.5 °F /  -8.6 °C 1017.8 in /  34462.7 hPa East 3.2 mph /  5.1 km/h 9.7 mph /  15.6 km/h 54 % 0.0 in /  0 mm
06:00 27.2 °F /  -2.7 °C 16.5 °F /  -8.6 °C 1017.8 in /  34462.7 hPa East 3.2 mph /  5.1 km/h 9.7 mph /  15.6 km/h 52 % 0.0 in /  0 mm
06:10 27.0 °F /  -2.8 °C 16.3 °F /  -8.7 °C 1017.8 in /  34462.7 hPa East 4.8 mph /  7.7 km/h 8.0 mph /  12.9 km/h 52 % 0.0 in /  0 mm
06:20 27.4 °F /  -2.6 °C 16.4 °F /  -8.7 °C 1017.8 in /  34462.7 hPa ESE 4.8 mph /  7.7 km/h 11.3 mph /  18.2 km/h 51 % 0.0 in /  0 mm
06:30 27.8 °F /  -2.3 °C 17.1 °F /  -8.3 °C 1017.8 in /  34462.7 hPa East 3.2 mph /  5.1 km/h 9.7 mph /  15.6 km/h 52 % 0.0 in /  0 mm
06:40 27.8 °F /  -2.3 °C 16.7 °F /  -8.5 °C 1017.8 in /  34462.7 hPa East 8.0 mph /  12.9 km/h 11.3 mph /  18.2 km/h 51 % 0.0 in /  0 mm
06:50 28.0 °F /  -2.2 °C 16.9 °F /  -8.4 °C 1017.8 in /  34462.7 hPa ESE 4.8 mph /  7.7 km/h 9.7 mph /  15.6 km/h 51 % 0.0 in /  0 mm
07:00 28.4 °F /  -2 °C 17.3 °F /  -8.2 °C 1017.8 in /  34462.7 hPa ESE 9.7 mph /  15.6 km/h 12.9 mph /  20.8 km/h 51 % 0.0 in /  0 mm
07:10 28.7 °F /  -1.8 °C 17.6 °F /  -8 °C 1017.8 in /  34462.7 hPa East 8.0 mph /  12.9 km/h 8.0 mph /  12.9 km/h 51 % 0.0 in /  0 mm
07:20 28.9 °F /  -1.7 °C 17.4 °F /  -8.1 °C 1017.8 in /  34462.7 hPa East 9.7 mph /  15.6 km/h 9.7 mph /  15.6 km/h 50 % 0.0 in /  0 mm
07:30 29.7 °F /  -1.3 °C 16.8 °F /  -8.4 °C 1017.8 in /  34462.7 hPa East 4.8 mph /  7.7 km/h 16.1 mph /  25.9 km/h 46 % 0.0 in /  0 mm
12:40 29.3 °F /  -1.5 °C 16.8 °F /  -8.4 °C 1017.8 in /  34462.7 hPa ESE 13.0 mph /  20.9 km/h 13.0 mph /  20.9 km/h 47 % 0.0 in /  0 mm
12:41 29.3 °F /  -1.5 °C 16.8 °F /  -8.4 °C 1017.8 in /  34462.7 hPa East 14.8 mph /  23.8 km/h 14.8 mph /  23.8 km/h 47 % 0.0 in /  0 mm
12:46 29.4 °F /  -1.4 °C 17.2 °F /  -8.2 °C 1017.8 in /  34462.7 hPa NE 20.4 mph /  32.8 km/h 20.4 mph /  32.8 km/h 48 % 0.0 in /  0 mm
12:51 29.4 °F /  -1.4 °C 17.6 °F /  -8 °C 1017.8 in /  34462.7 hPa NE 16.4 mph /  26.4 km/h 16.4 mph /  26.4 km/h 49 % 0.0 in /  0 mm
12:56 29.3 °F /  -1.5 °C 17.5 °F /  -8.1 °C 1017.8 in /  34462.7 hPa ESE 16.7 mph /  26.9 km/h 16.7 mph /  26.9 km/h 49 % 0.0 in /  0 mm
13:01 29.1 °F /  -1.6 °C 17.3 °F /  -8.2 °C 1017.8 in /  34462.7 hPa NE 11.1 mph /  17.9 km/h 11.1 mph /  17.9 km/h 49 % 0.0 in /  0 mm
13:06 29.3 °F /  -1.5 °C 17.5 °F /  -8.1 °C 1017.8 in /  34462.7 hPa East 19.8 mph /  31.9 km/h 19.8 mph /  31.9 km/h 49 % 0.0 in /  0 mm
13:11 29.6 °F /  -1.3 °C 17.8 °F /  -7.9 °C 1017.8 in /  34462.7 hPa East 20.9 mph /  33.6 km/h 20.9 mph /  33.6 km/h 49 % 0.0 in /  0 mm
13:16 29.3 °F /  -1.5 °C 17.5 °F /  -8.1 °C 1017.8 in /  34462.7 hPa SSE 22.2 mph /  35.7 km/h 22.2 mph /  35.7 km/h 49 % 0.0 in /  0 mm
13:21 29.6 °F /  -1.3 °C 17.8 °F /  -7.9 °C 1017.8 in /  34462.7 hPa ESE 12.6 mph /  20.3 km/h 12.6 mph /  20.3 km/h 49 % 0.0 in /  0 mm
13:22 29.6 °F /  -1.3 °C 17.8 °F /  -7.9 °C 1017.8 in /  34462.7 hPa ESE 15.1 mph /  24.3 km/h 15.1 mph /  24.3 km/h 49 % 0.0 in /  0 mm
13:27 29.1 °F /  -1.6 °C 17.3 °F /  -8.2 °C 1017.8 in /  34462.7 hPa ENE 15.6 mph /  25.1 km/h 15.6 mph /  25.1 km/h 49 % 0.0 in /  0 mm
13:32 29.1 °F /  -1.6 °C 17.3 °F /  -8.2 °C 1016.8 in /  34428.8 hPa ESE 13.7 mph /  22 km/h 13.7 mph /  22 km/h 49 % 0.0 in /  0 mm
13:37 29.3 °F /  -1.5 °C 17.8 °F /  -7.9 °C 1016.8 in /  34428.8 hPa ESE 17.2 mph /  27.7 km/h 17.2 mph /  27.7 km/h 50 % 0.0 in /  0 mm
13:42 29.6 °F /  -1.3 °C 18.1 °F /  -7.7 °C 1016.8 in /  34428.8 hPa ESE 14.8 mph /  23.8 km/h 14.8 mph /  23.8 km/h 50 % 0.0 in /  0 mm
13:47 29.5 °F /  -1.4 °C 17.7 °F /  -7.9 °C 1017.8 in /  34462.7 hPa East 11.9 mph /  19.2 km/h 11.9 mph /  19.2 km/h 49 % 0.0 in /  0 mm
13:52 29.5 °F /  -1.4 °C 17.3 °F /  -8.2 °C 1017.8 in /  34462.7 hPa SE 13.0 mph /  20.9 km/h 13.0 mph /  20.9 km/h 48 % 0.0 in /  0 mm
13:57 29.4 °F /  -1.4 °C 17.2 °F /  -8.2 °C 1017.8 in /  34462.7 hPa East 17.2 mph /  27.7 km/h 17.2 mph /  27.7 km/h 48 % 0.0 in /  0 mm
14:02 29.8 °F /  -1.2 °C 17.6 °F /  -8 °C 1016.8 in /  34428.8 hPa NE 9.5 mph /  15.3 km/h 9.5 mph /  15.3 km/h 48 % 0.0 in /  0 mm
14:07 29.9 °F /  -1.2 °C 17.7 °F /  -7.9 °C 1016.8 in /  34428.8 hPa East 13.0 mph /  20.9 km/h 13.0 mph /  20.9 km/h 48 % 0.0 in /  0 mm
14:12 30.1 °F /  -1.1 °C 17.6 °F /  -8 °C 1016.8 in /  34428.8 hPa SSE 13.0 mph /  20.9 km/h 13.0 mph /  20.9 km/h 47 % 0.0 in /  0 mm
14:17 30.1 °F /  -1.1 °C 17.2 °F /  -8.2 °C 1017.8 in /  34462.7 hPa ESE 16.7 mph /  26.9 km/h 16.7 mph /  26.9 km/h 46 % 0.0 in /  0 mm
14:22 29.9 °F /  -1.2 °C 17.4 °F /  -8.1 °C 1017.8 in /  34462.7 hPa ESE 14.8 mph /  23.8 km/h 14.8 mph /  23.8 km/h 47 % 0.0 in /  0 mm
14:27 29.7 °F /  -1.3 °C 17.2 °F /  -8.2 °C 1017.8 in /  34462.7 hPa ESE 18.5 mph /  29.8 km/h 18.5 mph /  29.8 km/h 47 % 0.0 in /  0 mm
14:32 29.4 °F /  -1.4 °C 16.9 °F /  -8.4 °C 1017.8 in /  34462.7 hPa ESE 13.0 mph /  20.9 km/h 13.0 mph /  20.9 km/h 47 % 0.0 in /  0 mm
14:37 29.9 °F /  -1.2 °C 17.7 °F /  -7.9 °C 1017.8 in /  34462.7 hPa ENE 16.7 mph /  26.9 km/h 16.7 mph /  26.9 km/h 48 % 0.0 in /  0 mm
14:42 29.8 °F /  -1.2 °C 17.3 °F /  -8.2 °C 1017.8 in /  34462.7 hPa ENE 18.5 mph /  29.8 km/h 18.5 mph /  29.8 km/h 47 % 0.0 in /  0 mm
14:47 29.8 °F /  -1.2 °C 17.6 °F /  -8 °C 1017.8 in /  34462.7 hPa ESE 19.0 mph /  30.6 km/h 19.0 mph /  30.6 km/h 48 % 0.0 in /  0 mm
14:52 29.5 °F /  -1.4 °C 17.3 °F /  -8.2 °C 1017.8 in /  34462.7 hPa SSE 14.8 mph /  23.8 km/h 14.8 mph /  23.8 km/h 48 % 0.0 in /  0 mm
14:57 30.0 °F /  -1.1 °C 17.8 °F /  -7.9 °C 1017.8 in /  34462.7 hPa ESE 13.0 mph /  20.9 km/h 13.0 mph /  20.9 km/h 48 % 0.0 in /  0 mm
15:02 29.9 °F /  -1.2 °C 18.1 °F /  -7.7 °C 1017.8 in /  34462.7 hPa ESE 11.1 mph /  17.9 km/h 11.1 mph /  17.9 km/h 49 % 0.0 in /  0 mm
15:07 29.8 °F /  -1.2 °C 17.9 °F /  -7.8 °C 1017.8 in /  34462.7 hPa ESE 18.5 mph /  29.8 km/h 18.5 mph /  29.8 km/h 49 % 0.0 in /  0 mm
15:12 29.8 °F /  -1.2 °C 17.9 °F /  -7.8 °C 1017.8 in /  34462.7 hPa ESE 18.5 mph /  29.8 km/h 18.5 mph /  29.8 km/h 49 % 0.0 in /  0 mm
15:17 30.0 °F /  -1.1 °C 18.1 °F /  -7.7 °C 1017.8 in /  34462.7 hPa SSE 13.0 mph /  20.9 km/h 13.0 mph /  20.9 km/h 49 % 0.0 in /  0 mm
15:22 29.8 °F /  -1.2 °C 17.6 °F /  -8 °C 1017.8 in /  34462.7 hPa ESE 13.0 mph /  20.9 km/h 13.0 mph /  20.9 km/h 48 % 0.0 in /  0 mm
15:27 30.0 °F /  -1.1 °C 17.8 °F /  -7.9 °C 1017.8 in /  34462.7 hPa ESE 16.9 mph /  27.2 km/h 16.9 mph /  27.2 km/h 48 % 0.0 in /  0 mm
15:32 30.2 °F /  -1 °C 17.7 °F /  -7.9 °C 1017.8 in /  34462.7 hPa SE 13.0 mph /  20.9 km/h 13.0 mph /  20.9 km/h 47 % 0.0 in /  0 mm
15:37 30.1 °F /  -1.1 °C 17.9 °F /  -7.8 °C 1017.8 in /  34462.7 hPa SSE 13.0 mph /  20.9 km/h 13.0 mph /  20.9 km/h 48 % 0.0 in /  0 mm
15:42 31.0 °F /  -0.6 °C 18.0 °F /  -7.8 °C 1017.8 in /  34462.7 hPa East 9.3 mph /  15 km/h 9.3 mph /  15 km/h 46 % 0.0 in /  0 mm
15:47 31.0 °F /  -0.6 °C 17.7 °F /  -7.9 °C 1017.8 in /  34462.7 hPa SSE 10.0 mph /  16.1 km/h 10.0 mph /  16.1 km/h 45 % 0.0 in /  0 mm
15:52 30.4 °F /  -0.9 °C 18.2 °F /  -7.7 °C 1017.8 in /  34462.7 hPa ESE 16.7 mph /  26.9 km/h 16.7 mph /  26.9 km/h 48 % 0.0 in /  0 mm
15:57 30.0 °F /  -1.1 °C 17.4 °F /  -8.1 °C 1017.8 in /  34462.7 hPa SE 18.5 mph /  29.8 km/h 18.5 mph /  29.8 km/h 47 % 0.0 in /  0 mm
16:02 30.0 °F /  -1.1 °C 17.4 °F /  -8.1 °C 1017.8 in /  34462.7 hPa East 15.1 mph /  24.3 km/h 15.1 mph /  24.3 km/h 47 % 0.0 in /  0 mm
16:07 29.8 °F /  -1.2 °C 17.9 °F /  -7.8 °C 1017.8 in /  34462.7 hPa ENE 14.8 mph /  23.8 km/h 14.8 mph /  23.8 km/h 49 % 0.0 in /  0 mm
16:12 30.1 °F /  -1.1 °C 17.9 °F /  -7.8 °C 1017.8 in /  34462.7 hPa ESE 14.8 mph /  23.8 km/h 14.8 mph /  23.8 km/h 48 % 0.0 in /  0 mm
16:17 30.0 °F /  -1.1 °C 17.8 °F /  -7.9 °C 1017.8 in /  34462.7 hPa ESE 16.7 mph /  26.9 km/h 16.7 mph /  26.9 km/h 48 % 0.0 in /  0 mm
16:22 29.8 °F /  -1.2 °C 17.9 °F /  -7.8 °C 1017.8 in /  34462.7 hPa ESE 16.7 mph /  26.9 km/h 16.7 mph /  26.9 km/h 49 % 0.0 in /  0 mm
16:27 29.8 °F /  -1.2 °C 17.9 °F /  -7.8 °C 1017.8 in /  34462.7 hPa ENE 14.8 mph /  23.8 km/h 14.8 mph /  23.8 km/h 49 % 0.0 in /  0 mm
16:32 29.8 °F /  -1.2 °C 17.9 °F /  -7.8 °C 1016.8 in /  34428.8 hPa SE 18.5 mph /  29.8 km/h 18.5 mph /  29.8 km/h 49 % 0.0 in /  0 mm
16:37 29.9 °F /  -1.2 °C 18.1 °F /  -7.7 °C 1016.8 in /  34428.8 hPa SE 13.0 mph /  20.9 km/h 13.0 mph /  20.9 km/h 49 % 0.0 in /  0 mm
16:42 30.1 °F /  -1.1 °C 18.2 °F /  -7.7 °C 1016.8 in /  34428.8 hPa ENE 10.3 mph /  16.6 km/h 10.3 mph /  16.6 km/h 49 % 0.0 in /  0 mm
16:47 29.8 °F /  -1.2 °C 18.3 °F /  -7.6 °C 1017.8 in /  34462.7 hPa NE 16.7 mph /  26.9 km/h 16.7 mph /  26.9 km/h 50 % 0.0 in /  0 mm
16:52 29.8 °F /  -1.2 °C 18.3 °F /  -7.6 °C 1017.8 in /  34462.7 hPa ESE 20.4 mph /  32.8 km/h 20.4 mph /  32.8 km/h 50 % 0.0 in /  0 mm
16:57 30.3 °F /  -0.9 °C 18.1 °F /  -7.7 °C 1017.8 in /  34462.7 hPa SE 11.1 mph /  17.9 km/h 11.1 mph /  17.9 km/h 48 % 0.0 in /  0 mm
17:02 30.7 °F /  -0.7 °C 18.1 °F /  -7.7 °C 1016.8 in /  34428.8 hPa SW 16.4 mph /  26.4 km/h 16.4 mph /  26.4 km/h 47 % 0.0 in /  0 mm
17:07 31.3 °F /  -0.4 °C 18.3 °F /  -7.6 °C 1016.8 in /  34428.8 hPa SE 11.1 mph /  17.9 km/h 11.1 mph /  17.9 km/h 46 % 0.0 in /  0 mm
17:12 30.9 °F /  -0.6 °C 18.3 °F /  -7.6 °C 1016.8 in /  34428.8 hPa NE 11.1 mph /  17.9 km/h 11.1 mph /  17.9 km/h 47 % 0.0 in /  0 mm
17:17 31.7 °F /  -0.2 °C 18.7 °F /  -7.4 °C 1016.8 in /  34428.8 hPa South 7.4 mph /  11.9 km/h 7.4 mph /  11.9 km/h 46 % 0.0 in /  0 mm
17:22 31.3 °F /  -0.4 °C 18.3 °F /  -7.6 °C 1016.8 in /  34428.8 hPa ESE 11.9 mph /  19.2 km/h 11.9 mph /  19.2 km/h 46 % 0.0 in /  0 mm
17:27 31.4 °F /  -0.3 °C 18.4 °F /  -7.6 °C 1016.8 in /  34428.8 hPa SE 9.3 mph /  15 km/h 9.3 mph /  15 km/h 46 % 0.0 in /  0 mm
17:32 31.1 °F /  -0.5 °C 17.8 °F /  -7.9 °C 1015.8 in /  34395 hPa South 9.3 mph /  15 km/h 9.3 mph /  15 km/h 45 % 0.0 in /  0 mm
17:37 31.0 °F /  -0.6 °C 18.0 °F /  -7.8 °C 1015.8 in /  34395 hPa ESE 9.3 mph /  15 km/h 9.3 mph /  15 km/h 46 % 0.0 in /  0 mm
17:42 30.8 °F /  -0.7 °C 18.2 °F /  -7.7 °C 1015.8 in /  34395 hPa SSE 9.3 mph /  15 km/h 9.3 mph /  15 km/h 47 % 0.0 in /  0 mm
17:47 31.0 °F /  -0.6 °C 18.0 °F /  -7.8 °C 1015.8 in /  34395 hPa SSW 9.3 mph /  15 km/h 9.3 mph /  15 km/h 46 % 0.0 in /  0 mm
17:52 31.8 °F /  -0.1 °C 18.4 °F /  -7.6 °C 1015.8 in /  34395 hPa South 9.3 mph /  15 km/h 9.3 mph /  15 km/h 45 % 0.0 in /  0 mm
17:57 31.4 °F /  -0.3 °C 17.3 °F /  -8.2 °C 1015.8 in /  34395 hPa SSE 7.4 mph /  11.9 km/h 7.4 mph /  11.9 km/h 43 % 0.0 in /  0 mm
18:02 30.9 °F /  -0.6 °C 17.9 °F /  -7.8 °C 1015.8 in /  34395 hPa ESE 3.7 mph /  6 km/h 3.7 mph /  6 km/h 46 % 0.0 in /  0 mm
18:07 30.7 °F /  -0.7 °C 18.1 °F /  -7.7 °C 1015.8 in /  34395 hPa SSW 9.3 mph /  15 km/h 9.3 mph /  15 km/h 47 % 0.0 in /  0 mm
18:12 31.1 °F /  -0.5 °C 18.1 °F /  -7.7 °C 1015.8 in /  34395 hPa SSE 16.7 mph /  26.9 km/h 16.7 mph /  26.9 km/h 46 % 0.0 in /  0 mm
18:17 31.2 °F /  -0.4 °C 18.2 °F /  -7.7 °C 1014.8 in /  34361.1 hPa SSW 5.6 mph /  9 km/h 5.6 mph /  9 km/h 46 % 0.0 in /  0 mm
18:22 31.5 °F /  -0.3 °C 17.8 °F /  -7.9 °C 1014.8 in /  34361.1 hPa ESE 9.5 mph /  15.3 km/h 9.5 mph /  15.3 km/h 44 % 0.0 in /  0 mm
18:27 31.6 °F /  -0.2 °C 16.7 °F /  -8.5 °C 1014.8 in /  34361.1 hPa SSW 9.3 mph /  15 km/h 9.3 mph /  15 km/h 41 % 0.0 in /  0 mm
18:32 32.1 °F /  0.1 °C 17.2 °F /  -8.2 °C 1014.8 in /  34361.1 hPa SW 13.0 mph /  20.9 km/h 13.0 mph /  20.9 km/h 41 % 0.0 in /  0 mm
18:37 31.4 °F /  -0.3 °C 16.9 °F /  -8.4 °C 1014.8 in /  34361.1 hPa SE 13.0 mph /  20.9 km/h 13.0 mph /  20.9 km/h 42 % 0.0 in /  0 mm
18:42 31.6 °F /  -0.2 °C 16.7 °F /  -8.5 °C 1014.8 in /  34361.1 hPa West 3.7 mph /  6 km/h 3.7 mph /  6 km/h 41 % 0.0 in /  0 mm
18:47 31.7 °F /  -0.2 °C 16.1 °F /  -8.8 °C 1015.8 in /  34395 hPa WSW 9.3 mph /  15 km/h 9.3 mph /  15 km/h 39 % 0.0 in /  0 mm
18:52 31.9 °F /  -0.1 °C 16.6 °F /  -8.6 °C 1015.8 in /  34395 hPa WSW 7.4 mph /  11.9 km/h 7.4 mph /  11.9 km/h 40 % 0.0 in /  0 mm
18:57 31.4 °F /  -0.3 °C 15.4 °F /  -9.2 °C 1015.8 in /  34395 hPa WSW 9.3 mph /  15 km/h 9.3 mph /  15 km/h 38 % 0.0 in /  0 mm
19:02 31.7 °F /  -0.2 °C 15.6 °F /  -9.1 °C 1015.8 in /  34395 hPa SW 9.7 mph /  15.6 km/h 9.7 mph /  15.6 km/h 38 % 0.0 in /  0 mm
19:07 31.3 °F /  -0.4 °C 14.9 °F /  -9.5 °C 1015.8 in /  34395 hPa South 13.0 mph /  20.9 km/h 13.0 mph /  20.9 km/h 37 % 0.0 in /  0 mm
19:12 30.9 °F /  -0.6 °C 14.5 °F /  -9.7 °C 1015.8 in /  34395 hPa SW 9.3 mph /  15 km/h 9.3 mph /  15 km/h 37 % 0.0 in /  0 mm
19:17 31.0 °F /  -0.6 °C 14.2 °F /  -9.9 °C 1015.8 in /  34395 hPa SW 3.7 mph /  6 km/h 3.7 mph /  6 km/h 36 % 0.0 in /  0 mm
19:22 31.1 °F /  -0.5 °C 14.7 °F /  -9.6 °C 1015.8 in /  34395 hPa SW 7.4 mph /  11.9 km/h 7.4 mph /  11.9 km/h 37 % 0.0 in /  0 mm
19:27 30.9 °F /  -0.6 °C 14.1 °F /  -9.9 °C 1015.8 in /  34395 hPa SSE 9.7 mph /  15.6 km/h 9.7 mph /  15.6 km/h 36 % 0.0 in /  0 mm
19:32 30.5 °F /  -0.8 °C 13.7 °F /  -10.2 °C 1014.8 in /  34361.1 hPa SW 9.3 mph /  15 km/h 9.3 mph /  15 km/h 36 % 0.0 in /  0 mm
19:37 30.5 °F /  -0.8 °C 13.7 °F /  -10.2 °C 1014.8 in /  34361.1 hPa SSW 7.4 mph /  11.9 km/h 7.4 mph /  11.9 km/h 36 % 0.0 in /  0 mm
19:42 30.6 °F /  -0.8 °C 13.8 °F /  -10.1 °C 1014.8 in /  34361.1 hPa WSW 7.4 mph /  11.9 km/h 7.4 mph /  11.9 km/h 36 % 0.0 in /  0 mm
19:47 30.4 °F /  -0.9 °C 13.2 °F /  -10.4 °C 1015.8 in /  34395 hPa SW 13.0 mph /  20.9 km/h 13.0 mph /  20.9 km/h 35 % 0.0 in /  0 mm
19:52 30.1 °F /  -1.1 °C 13.4 °F /  -10.3 °C 1015.8 in /  34395 hPa SW 3.7 mph /  6 km/h 3.7 mph /  6 km/h 36 % 0.0 in /  0 mm
19:57 30.1 °F /  -1.1 °C 13.4 °F /  -10.3 °C 1015.8 in /  34395 hPa South 6.1 mph /  9.8 km/h 6.1 mph /  9.8 km/h 36 % 0.0 in /  0 mm
20:02 29.7 °F /  -1.3 °C 13.4 °F /  -10.3 °C 1015.8 in /  34395 hPa South 11.1 mph /  17.9 km/h 11.1 mph /  17.9 km/h 37 % 0.0 in /  0 mm
20:07 29.6 °F /  -1.3 °C 13.4 °F /  -10.3 °C 1015.8 in /  34395 hPa WSW 7.4 mph /  11.9 km/h 7.4 mph /  11.9 km/h 37 % 0.0 in /  0 mm
20:12 29.4 °F /  -1.4 °C 13.2 °F /  -10.4 °C 1015.8 in /  34395 hPa South 7.4 mph /  11.9 km/h 7.4 mph /  11.9 km/h 37 % 0.0 in /  0 mm
20:17 29.1 °F /  -1.6 °C 13.3 °F /  -10.4 °C 1015.8 in /  34395 hPa SW 11.1 mph /  17.9 km/h 11.1 mph /  17.9 km/h 38 % 0.0 in /  0 mm
20:22 29.1 °F /  -1.6 °C 13.3 °F /  -10.4 °C 1015.8 in /  34395 hPa SSW 5.6 mph /  9 km/h 5.6 mph /  9 km/h 38 % 0.0 in /  0 mm
20:27 28.9 °F /  -1.7 °C 13.6 °F /  -10.2 °C 1015.8 in /  34395 hPa South 11.9 mph /  19.2 km/h 11.9 mph /  19.2 km/h 39 % 0.0 in /  0 mm
20:32 28.8 °F /  -1.8 °C 13.8 °F /  -10.1 °C 1015.8 in /  34395 hPa SW 8.7 mph /  14 km/h 8.7 mph /  14 km/h 40 % 0.0 in /  0 mm
20:37 28.6 °F /  -1.9 °C 13.7 °F /  -10.2 °C 1015.8 in /  34395 hPa SSW 7.4 mph /  11.9 km/h 7.4 mph /  11.9 km/h 40 % 0.0 in /  0 mm
20:42 28.4 °F /  -2 °C 13.9 °F /  -10.1 °C 1015.8 in /  34395 hPa South 7.9 mph /  12.7 km/h 7.9 mph /  12.7 km/h 41 % 0.0 in /  0 mm
20:47 28.2 °F /  -2.1 °C 14.1 °F /  -9.9 °C 1015.8 in /  34395 hPa SW 9.3 mph /  15 km/h 9.3 mph /  15 km/h 42 % 0.0 in /  0 mm
20:52 28.0 °F /  -2.2 °C 13.9 °F /  -10.1 °C 1015.8 in /  34395 hPa South 5.6 mph /  9 km/h 5.6 mph /  9 km/h 42 % 0.0 in /  0 mm
20:57 27.8 °F /  -2.3 °C 13.7 °F /  -10.2 °C 1015.8 in /  34395 hPa South 13.0 mph /  20.9 km/h 13.0 mph /  20.9 km/h 42 % 0.0 in /  0 mm
21:02 27.7 °F /  -2.4 °C 14.0 °F /  -10 °C 1015.8 in /  34395 hPa WSW 5.6 mph /  9 km/h 5.6 mph /  9 km/h 43 % 0.0 in /  0 mm
21:07 27.5 °F /  -2.5 °C 13.8 °F /  -10.1 °C 1015.8 in /  34395 hPa SW 5.6 mph /  9 km/h 5.6 mph /  9 km/h 43 % 0.0 in /  0 mm
21:12 27.3 °F /  -2.6 °C 14.0 °F /  -10 °C 1015.8 in /  34395 hPa SW 7.4 mph /  11.9 km/h 7.4 mph /  11.9 km/h 44 % 0.0 in /  0 mm
21:17 27.1 °F /  -2.7 °C 13.8 °F /  -10.1 °C 1016.8 in /  34428.8 hPa SW 5.6 mph /  9 km/h 5.6 mph /  9 km/h 44 % 0.0 in /  0 mm
21:22 27.0 °F /  -2.8 °C 14.1 °F /  -9.9 °C 1016.8 in /  34428.8 hPa SSE 5.6 mph /  9 km/h 5.6 mph /  9 km/h 45 % 0.0 in /  0 mm
21:27 26.8 °F /  -2.9 °C 14.2 °F /  -9.9 °C 1016.8 in /  34428.8 hPa SW 3.7 mph /  6 km/h 3.7 mph /  6 km/h 46 % 0.0 in /  0 mm
21:32 26.6 °F /  -3 °C 14.3 °F /  -9.8 °C 1016.8 in /  34428.8 hPa SSW 5.0 mph /  8 km/h 5.0 mph /  8 km/h 47 % 0.0 in /  0 mm
21:37 26.5 °F /  -3.1 °C 14.3 °F /  -9.8 °C 1016.8 in /  34428.8 hPa West 7.4 mph /  11.9 km/h 7.4 mph /  11.9 km/h 47 % 0.0 in /  0 mm
21:42 26.3 °F /  -3.2 °C 14.4 °F /  -9.8 °C 1016.8 in /  34428.8 hPa WSW 7.4 mph /  11.9 km/h 7.4 mph /  11.9 km/h 48 % 0.0 in /  0 mm
21:47 26.2 °F /  -3.2 °C 14.3 °F /  -9.8 °C 1017.8 in /  34462.7 hPa South 5.6 mph /  9 km/h 5.6 mph /  9 km/h 48 % 0.0 in /  0 mm
21:52 25.9 °F /  -3.4 °C 14.4 °F /  -9.8 °C 1017.8 in /  34462.7 hPa SW 5.6 mph /  9 km/h 5.6 mph /  9 km/h 49 % 0.0 in /  0 mm
21:57 25.7 °F /  -3.5 °C 14.2 °F /  -9.9 °C 1017.8 in /  34462.7 hPa SSW 6.4 mph /  10.3 km/h 6.4 mph /  10.3 km/h 49 % 0.0 in /  0 mm
22:02 25.6 °F /  -3.6 °C 14.4 °F /  -9.8 °C 1017.8 in /  34462.7 hPa SSW 7.4 mph /  11.9 km/h 7.4 mph /  11.9 km/h 50 % 0.0 in /  0 mm
22:07 25.4 °F /  -3.7 °C 14.5 °F /  -9.7 °C 1017.8 in /  34462.7 hPa SSW 9.3 mph /  15 km/h 9.3 mph /  15 km/h 51 % 0.0 in /  0 mm
22:12 25.2 °F /  -3.8 °C 14.7 °F /  -9.6 °C 1017.8 in /  34462.7 hPa SW 9.3 mph /  15 km/h 9.3 mph /  15 km/h 52 % 0.0 in /  0 mm
22:17 25.1 °F /  -3.8 °C 14.8 °F /  -9.6 °C 1016.8 in /  34428.8 hPa SW 7.4 mph /  11.9 km/h 7.4 mph /  11.9 km/h 53 % 0.0 in /  0 mm
22:22 25.0 °F /  -3.9 °C 14.8 °F /  -9.6 °C 1016.8 in /  34428.8 hPa SSW 7.4 mph /  11.9 km/h 7.4 mph /  11.9 km/h 53 % 0.0 in /  0 mm
22:27 24.9 °F /  -3.9 °C 15.2 °F /  -9.3 °C 1016.8 in /  34428.8 hPa SW 5.6 mph /  9 km/h 5.6 mph /  9 km/h 55 % 0.0 in /  0 mm
22:32 24.8 °F /  -4 °C 15.2 °F /  -9.3 °C 1017.8 in /  34462.7 hPa WSW 5.6 mph /  9 km/h 5.6 mph /  9 km/h 55 % 0.0 in /  0 mm
22:37 24.6 °F /  -4.1 °C 15.2 °F /  -9.3 °C 1017.8 in /  34462.7 hPa SW 7.4 mph /  11.9 km/h 7.4 mph /  11.9 km/h 56 % 0.0 in /  0 mm
22:40 21.8 °F /  -5.7 °C 18.4 °F /  -7.6 °C 1017.8 in /  34462.7 hPa Calm   1.6 mph /  2.6 km/h 81 % 0.0 in /  0 mm
22:42 24.6 °F /  -4.1 °C 15.2 °F /  -9.3 °C 1017.8 in /  34462.7 hPa SW 5.6 mph /  9 km/h 5.6 mph /  9 km/h 56 % 0.0 in /  0 mm
22:47 24.5 °F /  -4.2 °C 15.4 °F /  -9.2 °C 1018.8 in /  34496.6 hPa SW 3.7 mph /  6 km/h 4.2 mph /  6.8 km/h 57 % 0.0 in /  0 mm
22:50 21.7 °F /  -5.7 °C 18.3 °F /  -7.6 °C 1017.8 in /  34462.7 hPa Calm   1.6 mph /  2.6 km/h 81 % 0.0 in /  0 mm
22:52 24.3 °F /  -4.3 °C 15.5 °F /  -9.2 °C 1018.8 in /  34496.6 hPa WSW 5.6 mph /  9 km/h 5.6 mph /  9 km/h 58 % 0.0 in /  0 mm
22:53 24.3 °F /  -4.3 °C 15.5 °F /  -9.2 °C 1018.8 in /  34496.6 hPa WSW 5.6 mph /  9 km/h 5.6 mph /  9 km/h 58 % 0.0 in /  0 mm
22:58 24.3 °F /  -4.3 °C 15.5 °F /  -9.2 °C 1018.8 in /  34496.6 hPa WSW 3.9 mph /  6.3 km/h 3.9 mph /  6.3 km/h 58 % 0.0 in /  0 mm
23:00 21.7 °F /  -5.7 °C 18.5 °F /  -7.5 °C 1017.8 in /  34462.7 hPa Calm     82 % 0.0 in /  0 mm
23:03 24.2 °F /  -4.3 °C 15.7 °F /  -9.1 °C 1017.8 in /  34462.7 hPa SW 3.7 mph /  6 km/h 3.7 mph /  6 km/h 59 % 0.0 in /  0 mm
23:08 24.1 °F /  -4.4 °C 15.8 °F /  -9 °C 1017.8 in /  34462.7 hPa SW 3.9 mph /  6.3 km/h 3.9 mph /  6.3 km/h 60 % 0.0 in /  0 mm
23:10 21.5 °F /  -5.8 °C 18.1 °F /  -7.7 °C 1016.8 in /  34428.8 hPa Calm   1.6 mph /  2.6 km/h 81 % 0.0 in /  0 mm
23:13 24.0 °F /  -4.4 °C 16.0 °F /  -8.9 °C 1017.8 in /  34462.7 hPa SW 3.7 mph /  6 km/h 3.7 mph /  6 km/h 61 % 0.0 in /  0 mm
23:18 23.9 °F /  -4.5 °C 16.2 °F /  -8.8 °C 1017.8 in /  34462.7 hPa SSW 4.2 mph /  6.8 km/h 4.2 mph /  6.8 km/h 62 % 0.0 in /  0 mm
23:20 21.4 °F /  -5.9 °C 18.0 °F /  -7.8 °C 1016.8 in /  34428.8 hPa Calm   1.6 mph /  2.6 km/h 81 % 0.0 in /  0 mm
23:23 23.9 °F /  -4.5 °C 16.7 °F /  -8.5 °C 1017.8 in /  34462.7 hPa WSW 5.6 mph /  9 km/h 5.6 mph /  9 km/h 64 % 0.0 in /  0 mm
23:28 23.8 °F /  -4.6 °C 16.6 °F /  -8.6 °C 1017.8 in /  34462.7 hPa SW 4.2 mph /  6.8 km/h 4.2 mph /  6.8 km/h 64 % 0.0 in /  0 mm
23:30 21.2 °F /  -6 °C 17.8 °F /  -7.9 °C 1016.8 in /  34428.8 hPa SW 1.6 mph /  2.6 km/h 3.2 mph /  5.1 km/h 81 % 0.0 in /  0 mm
23:33 23.7 °F /  -4.6 °C 16.7 °F /  -8.5 °C 1017.8 in /  34462.7 hPa SW 5.6 mph /  9 km/h 5.6 mph /  9 km/h 65 % 0.0 in /  0 mm
23:38 23.7 °F /  -4.6 °C 17.2 °F /  -8.2 °C 1017.8 in /  34462.7 hPa SW 4.2 mph /  6.8 km/h 4.2 mph /  6.8 km/h 67 % 0.0 in /  0 mm
23:40 21.0 °F /  -6.1 °C 17.4 °F /  -8.1 °C 1015.8 in /  34395 hPa SW 3.2 mph /  5.1 km/h 3.2 mph /  5.1 km/h 80 % 0.0 in /  0 mm
23:43 23.6 °F /  -4.7 °C 17.1 °F /  -8.3 °C 1017.8 in /  34462.7 hPa SW 3.7 mph /  6 km/h 3.7 mph /  6 km/h 67 % 0.0 in /  0 mm
23:44 23.6 °F /  -4.7 °C 17.1 °F /  -8.3 °C 1017.8 in /  34462.7 hPa WSW 3.9 mph /  6.3 km/h 3.9 mph /  6.3 km/h 67 % 0.0 in /  0 mm
23:49 23.5 °F /  -4.7 °C 17.3 °F /  -8.2 °C 1017.8 in /  34462.7 hPa SW 3.7 mph /  6 km/h 3.7 mph /  6 km/h 68 % 0.0 in /  0 mm
23:50 20.9 °F /  -6.2 °C 17.5 °F /  -8.1 °C 1015.8 in /  34395 hPa SW 1.6 mph /  2.6 km/h 3.2 mph /  5.1 km/h 81 % 0.0 in /  0 mm
23:54 23.5 °F /  -4.7 °C 17.5 °F /  -8.1 °C 1017.8 in /  34462.7 hPa SW 3.7 mph /  6 km/h 3.7 mph /  6 km/h 69 % 0.0 in /  0 mm
23:59 23.4 °F /  -4.8 °C 17.6 °F /  -8 °C 1017.8 in /  34462.7 hPa SW 1.9 mph /  3.1 km/h 2.3 mph /  3.7 km/h 70 % 0.0 in /  0 mm
Meteo Sesrovires
Elogis d' Weather Underground - 1.5 mb

Guio original per  Jim McMurry - jmcmurry@mwt.net Adaptat per a la plantilla per  Wim van der Kuil - Leuven-Template.eu

Trobareu la nostra informacio del temps tambe a:

Weather Underground

AWEKAS